sensor_id;sensor_type;location;lat;lon;timestamp;P1;durP1;ratioP1;P2;durP2;ratioP2
64907;SDS011;69061;52.236;5.188;2023-07-29T00:01:54;6.20;;;4.03;;
64907;SDS011;69061;52.236;5.188;2023-07-29T00:04:21;6.25;;;3.78;;
64907;SDS011;69061;52.236;5.188;2023-07-29T00:06:48;7.20;;;4.15;;
64907;SDS011;69061;52.236;5.188;2023-07-29T00:09:14;9.07;;;4.63;;
64907;SDS011;69061;52.236;5.188;2023-07-29T00:11:42;7.70;;;5.20;;
64907;SDS011;69061;52.236;5.188;2023-07-29T00:14:09;10.90;;;6.57;;
64907;SDS011;69061;52.236;5.188;2023-07-29T00:16:36;7.95;;;5.50;;
64907;SDS011;69061;52.236;5.188;2023-07-29T00:19:02;8.65;;;5.13;;
64907;SDS011;69061;52.236;5.188;2023-07-29T00:21:29;7.88;;;4.53;;
64907;SDS011;69061;52.236;5.188;2023-07-29T00:23:56;5.97;;;3.97;;
64907;SDS011;69061;52.236;5.188;2023-07-29T00:26:23;8.15;;;3.55;;
64907;SDS011;69061;52.236;5.188;2023-07-29T00:28:52;8.77;;;4.03;;
64907;SDS011;69061;52.236;5.188;2023-07-29T00:31:19;8.20;;;4.07;;
64907;SDS011;69061;52.236;5.188;2023-07-29T00:33:45;6.32;;;3.78;;
64907;SDS011;69061;52.236;5.188;2023-07-29T00:36:12;6.03;;;3.63;;
64907;SDS011;69061;52.236;5.188;2023-07-29T00:38:39;7.03;;;3.72;;
64907;SDS011;69061;52.236;5.188;2023-07-29T00:41:06;6.55;;;3.70;;
64907;SDS011;69061;52.236;5.188;2023-07-29T00:43:33;7.13;;;3.60;;
64907;SDS011;69061;52.236;5.188;2023-07-29T00:46:01;5.93;;;3.80;;
64907;SDS011;69061;52.236;5.188;2023-07-29T00:48:29;5.53;;;3.25;;
64907;SDS011;69061;52.236;5.188;2023-07-29T00:50:55;6.53;;;3.75;;
64907;SDS011;69061;52.236;5.188;2023-07-29T00:53:25;11.48;;;3.78;;
64907;SDS011;69061;52.236;5.188;2023-07-29T00:55:52;8.77;;;4.20;;
64907;SDS011;69061;52.236;5.188;2023-07-29T00:58:19;6.28;;;3.53;;
64907;SDS011;69061;52.236;5.188;2023-07-29T01:00:46;7.30;;;3.90;;
64907;SDS011;69061;52.236;5.188;2023-07-29T01:03:15;6.82;;;3.85;;
64907;SDS011;69061;52.236;5.188;2023-07-29T01:05:45;13.07;;;3.97;;
64907;SDS011;69061;52.236;5.188;2023-07-29T01:08:25;9.40;;;4.18;;
64907;SDS011;69061;52.236;5.188;2023-07-29T01:11:01;10.55;;;3.85;;
64907;SDS011;69061;52.236;5.188;2023-07-29T01:13:44;7.78;;;4.00;;
64907;SDS011;69061;52.236;5.188;2023-07-29T01:16:21;6.78;;;3.97;;
64907;SDS011;69061;52.236;5.188;2023-07-29T01:18:56;8.25;;;3.40;;
64907;SDS011;69061;52.236;5.188;2023-07-29T01:21:26;7.90;;;3.90;;
64907;SDS011;69061;52.236;5.188;2023-07-29T01:23:56;11.02;;;4.20;;
64907;SDS011;69061;52.236;5.188;2023-07-29T01:26:27;7.63;;;3.78;;
64907;SDS011;69061;52.236;5.188;2023-07-29T01:28:54;8.85;;;4.25;;
64907;SDS011;69061;52.236;5.188;2023-07-29T01:31:23;7.90;;;3.90;;
64907;SDS011;69061;52.236;5.188;2023-07-29T01:33:57;11.82;;;4.45;;
64907;SDS011;69061;52.236;5.188;2023-07-29T01:36:28;8.02;;;4.05;;
64907;SDS011;69061;52.236;5.188;2023-07-29T01:39:00;6.10;;;3.70;;
64907;SDS011;69061;52.236;5.188;2023-07-29T01:41:29;8.65;;;4.10;;
64907;SDS011;69061;52.236;5.188;2023-07-29T01:43:56;9.02;;;4.45;;
64907;SDS011;69061;52.236;5.188;2023-07-29T01:46:23;12.32;;;4.72;;
64907;SDS011;69061;52.236;5.188;2023-07-29T01:48:50;7.93;;;4.28;;
64907;SDS011;69061;52.236;5.188;2023-07-29T01:51:16;11.27;;;4.40;;
64907;SDS011;69061;52.236;5.188;2023-07-29T01:53:43;11.43;;;4.97;;
64907;SDS011;69061;52.236;5.188;2023-07-29T01:56:11;6.25;;;4.22;;
64907;SDS011;69061;52.236;5.188;2023-07-29T01:58:38;9.68;;;4.50;;
64907;SDS011;69061;52.236;5.188;2023-07-29T02:01:04;8.10;;;4.45;;
64907;SDS011;69061;52.236;5.188;2023-07-29T02:03:31;11.95;;;5.20;;
64907;SDS011;69061;52.236;5.188;2023-07-29T02:05:58;13.27;;;5.63;;
64907;SDS011;69061;52.236;5.188;2023-07-29T02:08:24;9.50;;;4.75;;
64907;SDS011;69061;52.236;5.188;2023-07-29T02:10:51;14.70;;;4.82;;
64907;SDS011;69061;52.236;5.188;2023-07-29T02:13:19;14.13;;;5.88;;
64907;SDS011;69061;52.236;5.188;2023-07-29T02:15:46;9.65;;;5.80;;
64907;SDS011;69061;52.236;5.188;2023-07-29T02:18:12;11.68;;;6.72;;
64907;SDS011;69061;52.236;5.188;2023-07-29T02:20:39;9.75;;;5.32;;
64907;SDS011;69061;52.236;5.188;2023-07-29T02:23:07;11.75;;;6.13;;
64907;SDS011;69061;52.236;5.188;2023-07-29T02:25:35;12.38;;;5.80;;
64907;SDS011;69061;52.236;5.188;2023-07-29T02:28:03;13.65;;;6.25;;
64907;SDS011;69061;52.236;5.188;2023-07-29T02:30:31;8.82;;;5.22;;
64907;SDS011;69061;52.236;5.188;2023-07-29T02:32:58;13.57;;;6.68;;
64907;SDS011;69061;52.236;5.188;2023-07-29T02:35:26;17.10;;;6.72;;
64907;SDS011;69061;52.236;5.188;2023-07-29T02:37:53;11.35;;;6.15;;
64907;SDS011;69061;52.236;5.188;2023-07-29T02:40:20;10.57;;;6.15;;
64907;SDS011;69061;52.236;5.188;2023-07-29T02:42:48;12.10;;;5.90;;
64907;SDS011;69061;52.236;5.188;2023-07-29T02:45:14;10.43;;;5.90;;
64907;SDS011;69061;52.236;5.188;2023-07-29T02:47:42;11.65;;;6.18;;
64907;SDS011;69061;52.236;5.188;2023-07-29T02:50:09;10.25;;;5.53;;
64907;SDS011;69061;52.236;5.188;2023-07-29T02:52:36;13.00;;;6.32;;
64907;SDS011;69061;52.236;5.188;2023-07-29T02:55:02;13.52;;;5.68;;
64907;SDS011;69061;52.236;5.188;2023-07-29T02:57:29;12.90;;;6.10;;
64907;SDS011;69061;52.236;5.188;2023-07-29T02:59:56;13.15;;;6.35;;
64907;SDS011;69061;52.236;5.188;2023-07-29T03:02:23;10.63;;;5.93;;
64907;SDS011;69061;52.236;5.188;2023-07-29T03:04:51;13.02;;;6.90;;
64907;SDS011;69061;52.236;5.188;2023-07-29T03:07:17;10.77;;;6.03;;
64907;SDS011;69061;52.236;5.188;2023-07-29T03:09:45;9.00;;;5.53;;
64907;SDS011;69061;52.236;5.188;2023-07-29T03:12:12;12.25;;;5.53;;
64907;SDS011;69061;52.236;5.188;2023-07-29T03:14:39;11.00;;;5.68;;
64907;SDS011;69061;52.236;5.188;2023-07-29T03:17:06;10.18;;;6.18;;
64907;SDS011;69061;52.236;5.188;2023-07-29T03:19:34;12.80;;;6.43;;
64907;SDS011;69061;52.236;5.188;2023-07-29T03:22:02;11.45;;;5.60;;
64907;SDS011;69061;52.236;5.188;2023-07-29T03:24:29;11.10;;;5.55;;
64907;SDS011;69061;52.236;5.188;2023-07-29T03:26:55;12.65;;;6.32;;
64907;SDS011;69061;52.236;5.188;2023-07-29T03:29:22;11.40;;;6.20;;
64907;SDS011;69061;52.236;5.188;2023-07-29T03:31:48;17.38;;;6.28;;
64907;SDS011;69061;52.236;5.188;2023-07-29T03:34:15;13.95;;;5.90;;
64907;SDS011;69061;52.236;5.188;2023-07-29T03:36:42;14.13;;;6.68;;
64907;SDS011;69061;52.236;5.188;2023-07-29T03:39:12;9.63;;;5.68;;
64907;SDS011;69061;52.236;5.188;2023-07-29T03:41:39;11.38;;;6.05;;
64907;SDS011;69061;52.236;5.188;2023-07-29T03:44:05;10.90;;;5.70;;
64907;SDS011;69061;52.236;5.188;2023-07-29T03:46:32;9.27;;;5.93;;
64907;SDS011;69061;52.236;5.188;2023-07-29T03:48:59;13.40;;;5.65;;
64907;SDS011;69061;52.236;5.188;2023-07-29T03:51:25;11.90;;;5.80;;
64907;SDS011;69061;52.236;5.188;2023-07-29T03:53:52;11.77;;;5.32;;
64907;SDS011;69061;52.236;5.188;2023-07-29T03:56:22;11.70;;;5.70;;
64907;SDS011;69061;52.236;5.188;2023-07-29T03:58:49;12.23;;;5.63;;
64907;SDS011;69061;52.236;5.188;2023-07-29T04:01:16;10.05;;;5.55;;
64907;SDS011;69061;52.236;5.188;2023-07-29T04:03:41;10.77;;;5.60;;
64907;SDS011;69061;52.236;5.188;2023-07-29T04:06:08;16.70;;;6.03;;
64907;SDS011;69061;52.236;5.188;2023-07-29T04:08:35;9.25;;;5.20;;
64907;SDS011;69061;52.236;5.188;2023-07-29T04:11:02;7.63;;;4.68;;
64907;SDS011;69061;52.236;5.188;2023-07-29T04:13:30;8.25;;;4.97;;
64907;SDS011;69061;52.236;5.188;2023-07-29T04:15:56;8.23;;;4.72;;
64907;SDS011;69061;52.236;5.188;2023-07-29T04:18:23;11.70;;;5.05;;
64907;SDS011;69061;52.236;5.188;2023-07-29T04:20:50;12.15;;;4.78;;
64907;SDS011;69061;52.236;5.188;2023-07-29T04:23:17;10.30;;;5.43;;
64907;SDS011;69061;52.236;5.188;2023-07-29T04:25:43;7.97;;;4.47;;
64907;SDS011;69061;52.236;5.188;2023-07-29T04:28:10;8.32;;;4.88;;
64907;SDS011;69061;52.236;5.188;2023-07-29T04:30:38;8.55;;;5.00;;
64907;SDS011;69061;52.236;5.188;2023-07-29T04:33:04;9.55;;;5.05;;
64907;SDS011;69061;52.236;5.188;2023-07-29T04:35:31;9.40;;;4.55;;
64907;SDS011;69061;52.236;5.188;2023-07-29T04:38:02;9.15;;;5.00;;
64907;SDS011;69061;52.236;5.188;2023-07-29T04:40:29;8.18;;;5.20;;
64907;SDS011;69061;52.236;5.188;2023-07-29T04:42:59;7.05;;;4.90;;
64907;SDS011;69061;52.236;5.188;2023-07-29T04:45:27;8.55;;;5.05;;
64907;SDS011;69061;52.236;5.188;2023-07-29T04:47:56;13.55;;;5.28;;
64907;SDS011;69061;52.236;5.188;2023-07-29T04:50:22;7.43;;;4.63;;
64907;SDS011;69061;52.236;5.188;2023-07-29T04:52:49;7.82;;;5.22;;
64907;SDS011;69061;52.236;5.188;2023-07-29T04:55:16;11.88;;;5.07;;
64907;SDS011;69061;52.236;5.188;2023-07-29T04:57:42;13.30;;;5.03;;
64907;SDS011;69061;52.236;5.188;2023-07-29T05:00:09;7.80;;;4.25;;
64907;SDS011;69061;52.236;5.188;2023-07-29T05:02:36;9.82;;;4.65;;
64907;SDS011;69061;52.236;5.188;2023-07-29T05:05:05;7.95;;;4.47;;
64907;SDS011;69061;52.236;5.188;2023-07-29T05:07:33;11.38;;;5.93;;
64907;SDS011;69061;52.236;5.188;2023-07-29T05:10:00;13.27;;;5.20;;
64907;SDS011;69061;52.236;5.188;2023-07-29T05:12:26;9.55;;;5.60;;
64907;SDS011;69061;52.236;5.188;2023-07-29T05:14:54;15.38;;;5.55;;
64907;SDS011;69061;52.236;5.188;2023-07-29T05:17:21;11.45;;;5.30;;
64907;SDS011;69061;52.236;5.188;2023-07-29T05:19:48;10.18;;;5.07;;
64907;SDS011;69061;52.236;5.188;2023-07-29T05:22:16;9.57;;;5.40;;
64907;SDS011;69061;52.236;5.188;2023-07-29T05:24:43;11.68;;;5.38;;
64907;SDS011;69061;52.236;5.188;2023-07-29T05:27:09;15.98;;;6.43;;
64907;SDS011;69061;52.236;5.188;2023-07-29T05:29:36;12.00;;;6.00;;
64907;SDS011;69061;52.236;5.188;2023-07-29T05:32:03;9.82;;;5.35;;
64907;SDS011;69061;52.236;5.188;2023-07-29T05:34:30;14.85;;;6.32;;
64907;SDS011;69061;52.236;5.188;2023-07-29T05:36:57;12.35;;;6.05;;
64907;SDS011;69061;52.236;5.188;2023-07-29T05:39:25;11.57;;;5.30;;
64907;SDS011;69061;52.236;5.188;2023-07-29T05:41:51;9.07;;;5.60;;
64907;SDS011;69061;52.236;5.188;2023-07-29T05:44:18;8.43;;;5.97;;
64907;SDS011;69061;52.236;5.188;2023-07-29T05:46:45;11.52;;;6.38;;
64907;SDS011;69061;52.236;5.188;2023-07-29T05:49:12;15.55;;;6.43;;
64907;SDS011;69061;52.236;5.188;2023-07-29T05:51:39;10.93;;;6.45;;
64907;SDS011;69061;52.236;5.188;2023-07-29T05:54:06;13.10;;;6.93;;
64907;SDS011;69061;52.236;5.188;2023-07-29T05:56:34;12.43;;;6.35;;
64907;SDS011;69061;52.236;5.188;2023-07-29T05:59:00;10.85;;;5.95;;
64907;SDS011;69061;52.236;5.188;2023-07-29T06:01:27;10.50;;;6.55;;
64907;SDS011;69061;52.236;5.188;2023-07-29T06:03:54;11.18;;;6.65;;
64907;SDS011;69061;52.236;5.188;2023-07-29T06:06:20;11.63;;;6.05;;
64907;SDS011;69061;52.236;5.188;2023-07-29T06:08:49;11.45;;;6.75;;
64907;SDS011;69061;52.236;5.188;2023-07-29T06:11:16;13.13;;;6.38;;
64907;SDS011;69061;52.236;5.188;2023-07-29T06:13:45;14.30;;;6.25;;
64907;SDS011;69061;52.236;5.188;2023-07-29T06:16:14;13.32;;;6.80;;
64907;SDS011;69061;52.236;5.188;2023-07-29T06:18:40;11.52;;;6.28;;
64907;SDS011;69061;52.236;5.188;2023-07-29T06:21:07;13.55;;;6.97;;
64907;SDS011;69061;52.236;5.188;2023-07-29T06:23:37;12.05;;;6.57;;
64907;SDS011;69061;52.236;5.188;2023-07-29T06:26:03;9.55;;;6.45;;
64907;SDS011;69061;52.236;5.188;2023-07-29T06:28:31;10.45;;;6.00;;
64907;SDS011;69061;52.236;5.188;2023-07-29T06:30:59;12.32;;;6.57;;
64907;SDS011;69061;52.236;5.188;2023-07-29T06:33:26;10.93;;;5.95;;
64907;SDS011;69061;52.236;5.188;2023-07-29T06:35:53;12.00;;;6.18;;
64907;SDS011;69061;52.236;5.188;2023-07-29T06:38:19;8.90;;;5.18;;
64907;SDS011;69061;52.236;5.188;2023-07-29T06:40:47;10.65;;;6.90;;
64907;SDS011;69061;52.236;5.188;2023-07-29T06:43:13;11.05;;;6.22;;
64907;SDS011;69061;52.236;5.188;2023-07-29T06:45:40;19.67;;;7.72;;
64907;SDS011;69061;52.236;5.188;2023-07-29T06:48:08;11.50;;;7.25;;
64907;SDS011;69061;52.236;5.188;2023-07-29T06:50:35;14.43;;;6.05;;
64907;SDS011;69061;52.236;5.188;2023-07-29T06:53:03;15.43;;;7.68;;
64907;SDS011;69061;52.236;5.188;2023-07-29T06:55:29;12.57;;;6.85;;
64907;SDS011;69061;52.236;5.188;2023-07-29T06:57:56;12.35;;;6.57;;
64907;SDS011;69061;52.236;5.188;2023-07-29T07:00:23;16.08;;;8.10;;
64907;SDS011;69061;52.236;5.188;2023-07-29T07:02:50;12.95;;;7.45;;
64907;SDS011;69061;52.236;5.188;2023-07-29T07:05:17;15.80;;;7.75;;
64907;SDS011;69061;52.236;5.188;2023-07-29T07:07:44;15.73;;;7.65;;
64907;SDS011;69061;52.236;5.188;2023-07-29T07:10:11;13.75;;;8.13;;
64907;SDS011;69061;52.236;5.188;2023-07-29T07:12:37;12.90;;;7.82;;
64907;SDS011;69061;52.236;5.188;2023-07-29T07:15:04;15.90;;;8.90;;
64907;SDS011;69061;52.236;5.188;2023-07-29T07:17:32;17.88;;;8.07;;
64907;SDS011;69061;52.236;5.188;2023-07-29T07:19:58;12.88;;;7.10;;
64907;SDS011;69061;52.236;5.188;2023-07-29T07:22:26;12.80;;;7.32;;
64907;SDS011;69061;52.236;5.188;2023-07-29T07:24:53;16.30;;;6.97;;
64907;SDS011;69061;52.236;5.188;2023-07-29T07:27:20;15.02;;;7.93;;
64907;SDS011;69061;52.236;5.188;2023-07-29T07:29:46;13.60;;;7.70;;
64907;SDS011;69061;52.236;5.188;2023-07-29T07:32:13;16.67;;;7.20;;
64907;SDS011;69061;52.236;5.188;2023-07-29T07:34:40;11.73;;;6.63;;
64907;SDS011;69061;52.236;5.188;2023-07-29T07:37:06;15.50;;;7.40;;
64907;SDS011;69061;52.236;5.188;2023-07-29T07:39:34;18.42;;;7.78;;
64907;SDS011;69061;52.236;5.188;2023-07-29T07:42:02;12.88;;;7.60;;
64907;SDS011;69061;52.236;5.188;2023-07-29T07:44:29;15.43;;;7.72;;
64907;SDS011;69061;52.236;5.188;2023-07-29T07:46:55;12.45;;;8.18;;
64907;SDS011;69061;52.236;5.188;2023-07-29T07:49:22;12.43;;;8.55;;
64907;SDS011;69061;52.236;5.188;2023-07-29T07:51:49;12.77;;;8.32;;
64907;SDS011;69061;52.236;5.188;2023-07-29T07:54:16;13.80;;;8.75;;
64907;SDS011;69061;52.236;5.188;2023-07-29T07:56:44;12.75;;;8.45;;
64907;SDS011;69061;52.236;5.188;2023-07-29T07:59:11;16.45;;;8.60;;
64907;SDS011;69061;52.236;5.188;2023-07-29T08:01:38;13.40;;;7.68;;
64907;SDS011;69061;52.236;5.188;2023-07-29T08:04:05;12.15;;;8.13;;
64907;SDS011;69061;52.236;5.188;2023-07-29T08:06:32;8.40;;;6.93;;
64907;SDS011;69061;52.236;5.188;2023-07-29T08:09:00;11.45;;;6.65;;
64907;SDS011;69061;52.236;5.188;2023-07-29T08:11:27;11.25;;;6.85;;
64907;SDS011;69061;52.236;5.188;2023-07-29T08:13:56;10.02;;;7.20;;
64907;SDS011;69061;52.236;5.188;2023-07-29T08:16:22;13.80;;;7.07;;
64907;SDS011;69061;52.236;5.188;2023-07-29T08:18:49;10.13;;;7.10;;
64907;SDS011;69061;52.236;5.188;2023-07-29T08:21:15;16.35;;;8.10;;
64907;SDS011;69061;52.236;5.188;2023-07-29T08:23:42;13.13;;;8.18;;
64907;SDS011;69061;52.236;5.188;2023-07-29T08:26:09;11.88;;;7.28;;
64907;SDS011;69061;52.236;5.188;2023-07-29T08:28:36;12.52;;;8.10;;
64907;SDS011;69061;52.236;5.188;2023-07-29T08:31:05;11.48;;;7.53;;
64907;SDS011;69061;52.236;5.188;2023-07-29T08:33:32;10.48;;;6.47;;
64907;SDS011;69061;52.236;5.188;2023-07-29T08:36:00;12.38;;;6.40;;
64907;SDS011;69061;52.236;5.188;2023-07-29T08:38:26;9.63;;;5.78;;
64907;SDS011;69061;52.236;5.188;2023-07-29T08:40:54;9.98;;;5.97;;
64907;SDS011;69061;52.236;5.188;2023-07-29T08:43:29;9.32;;;5.80;;
64907;SDS011;69061;52.236;5.188;2023-07-29T08:45:57;9.25;;;5.32;;
64907;SDS011;69061;52.236;5.188;2023-07-29T08:48:29;9.50;;;5.05;;
64907;SDS011;69061;52.236;5.188;2023-07-29T08:51:05;12.55;;;5.13;;
64907;SDS011;69061;52.236;5.188;2023-07-29T08:53:34;7.10;;;4.75;;
64907;SDS011;69061;52.236;5.188;2023-07-29T08:56:03;9.73;;;4.93;;
64907;SDS011;69061;52.236;5.188;2023-07-29T08:58:30;11.05;;;4.22;;
64907;SDS011;69061;52.236;5.188;2023-07-29T09:00:59;8.07;;;4.50;;
64907;SDS011;69061;52.236;5.188;2023-07-29T09:03:33;7.85;;;4.22;;
64907;SDS011;69061;52.236;5.188;2023-07-29T09:06:00;8.30;;;4.28;;
64907;SDS011;69061;52.236;5.188;2023-07-29T09:08:28;10.05;;;4.72;;
64907;SDS011;69061;52.236;5.188;2023-07-29T09:10:55;10.85;;;4.45;;
64907;SDS011;69061;52.236;5.188;2023-07-29T09:13:22;8.70;;;4.57;;
64907;SDS011;69061;52.236;5.188;2023-07-29T09:15:49;9.70;;;4.75;;
64907;SDS011;69061;52.236;5.188;2023-07-29T09:18:20;10.82;;;4.38;;
64907;SDS011;69061;52.236;5.188;2023-07-29T09:20:48;7.90;;;4.18;;
64907;SDS011;69061;52.236;5.188;2023-07-29T09:23:16;10.05;;;4.20;;
64907;SDS011;69061;52.236;5.188;2023-07-29T09:25:43;11.40;;;5.00;;
64907;SDS011;69061;52.236;5.188;2023-07-29T09:28:13;7.60;;;4.10;;
64907;SDS011;69061;52.236;5.188;2023-07-29T09:30:42;9.10;;;4.72;;
64907;SDS011;69061;52.236;5.188;2023-07-29T09:33:11;11.15;;;5.55;;
64907;SDS011;69061;52.236;5.188;2023-07-29T09:35:38;9.07;;;3.95;;
64907;SDS011;69061;52.236;5.188;2023-07-29T09:38:06;6.28;;;3.90;;
64907;SDS011;69061;52.236;5.188;2023-07-29T09:40:34;8.95;;;4.32;;
64907;SDS011;69061;52.236;5.188;2023-07-29T09:43:02;8.40;;;3.78;;
64907;SDS011;69061;52.236;5.188;2023-07-29T09:45:31;6.97;;;4.00;;
64907;SDS011;69061;52.236;5.188;2023-07-29T09:48:00;8.30;;;4.60;;
64907;SDS011;69061;52.236;5.188;2023-07-29T09:50:28;9.20;;;4.00;;
64907;SDS011;69061;52.236;5.188;2023-07-29T09:52:55;6.75;;;3.20;;
64907;SDS011;69061;52.236;5.188;2023-07-29T09:55:25;7.93;;;4.07;;
64907;SDS011;69061;52.236;5.188;2023-07-29T09:57:53;7.28;;;3.78;;
64907;SDS011;69061;52.236;5.188;2023-07-29T10:00:22;9.70;;;4.18;;
64907;SDS011;69061;52.236;5.188;2023-07-29T10:02:49;8.18;;;3.83;;
64907;SDS011;69061;52.236;5.188;2023-07-29T10:05:17;4.50;;;3.40;;
64907;SDS011;69061;52.236;5.188;2023-07-29T10:07:44;8.30;;;4.15;;
64907;SDS011;69061;52.236;5.188;2023-07-29T10:10:13;6.97;;;4.03;;
64907;SDS011;69061;52.236;5.188;2023-07-29T10:12:42;8.85;;;5.13;;
64907;SDS011;69061;52.236;5.188;2023-07-29T10:15:09;6.43;;;4.22;;
64907;SDS011;69061;52.236;5.188;2023-07-29T10:17:36;9.52;;;5.65;;
64907;SDS011;69061;52.236;5.188;2023-07-29T10:20:05;10.25;;;4.28;;
64907;SDS011;69061;52.236;5.188;2023-07-29T10:22:33;10.77;;;4.60;;
64907;SDS011;69061;52.236;5.188;2023-07-29T10:25:03;11.13;;;4.93;;
64907;SDS011;69061;52.236;5.188;2023-07-29T10:27:33;9.10;;;4.57;;
64907;SDS011;69061;52.236;5.188;2023-07-29T10:30:09;7.13;;;4.03;;
64907;SDS011;69061;52.236;5.188;2023-07-29T10:32:38;8.05;;;4.43;;
64907;SDS011;69061;52.236;5.188;2023-07-29T10:35:08;8.38;;;4.28;;
64907;SDS011;69061;52.236;5.188;2023-07-29T10:37:36;7.90;;;4.45;;
64907;SDS011;69061;52.236;5.188;2023-07-29T10:40:06;10.68;;;5.07;;
64907;SDS011;69061;52.236;5.188;2023-07-29T10:42:34;8.85;;;4.28;;
64907;SDS011;69061;52.236;5.188;2023-07-29T10:45:16;6.25;;;4.03;;
64907;SDS011;69061;52.236;5.188;2023-07-29T10:47:44;6.45;;;4.68;;
64907;SDS011;69061;52.236;5.188;2023-07-29T10:50:16;10.30;;;5.20;;
64907;SDS011;69061;52.236;5.188;2023-07-29T10:52:46;6.70;;;4.88;;
64907;SDS011;69061;52.236;5.188;2023-07-29T10:55:26;7.25;;;4.22;;
64907;SDS011;69061;52.236;5.188;2023-07-29T10:58:08;7.68;;;4.65;;
64907;SDS011;69061;52.236;5.188;2023-07-29T11:00:39;10.23;;;5.60;;
64907;SDS011;69061;52.236;5.188;2023-07-29T11:03:08;6.65;;;5.35;;
64907;SDS011;69061;52.236;5.188;2023-07-29T11:05:41;12.48;;;5.50;;
64907;SDS011;69061;52.236;5.188;2023-07-29T11:08:20;9.27;;;6.82;;
64907;SDS011;69061;52.236;5.188;2023-07-29T11:11:04;8.85;;;6.25;;
64907;SDS011;69061;52.236;5.188;2023-07-29T11:13:32;8.65;;;6.13;;
64907;SDS011;69061;52.236;5.188;2023-07-29T11:16:01;9.90;;;6.57;;
64907;SDS011;69061;52.236;5.188;2023-07-29T11:18:29;13.25;;;7.05;;
64907;SDS011;69061;52.236;5.188;2023-07-29T11:20:57;8.02;;;7.22;;
64907;SDS011;69061;52.236;5.188;2023-07-29T11:23:28;11.65;;;7.18;;
64907;SDS011;69061;52.236;5.188;2023-07-29T11:25:57;9.57;;;6.57;;
64907;SDS011;69061;52.236;5.188;2023-07-29T11:28:24;9.88;;;6.88;;
64907;SDS011;69061;52.236;5.188;2023-07-29T11:30:51;10.93;;;7.97;;
64907;SDS011;69061;52.236;5.188;2023-07-29T11:33:22;8.57;;;6.63;;
64907;SDS011;69061;52.236;5.188;2023-07-29T11:35:50;8.57;;;6.35;;
64907;SDS011;69061;52.236;5.188;2023-07-29T11:38:18;6.93;;;5.60;;
64907;SDS011;69061;52.236;5.188;2023-07-29T11:40:55;7.78;;;5.03;;
64907;SDS011;69061;52.236;5.188;2023-07-29T11:43:23;4.65;;;3.75;;
64907;SDS011;69061;52.236;5.188;2023-07-29T11:45:50;5.63;;;4.07;;
64907;SDS011;69061;52.236;5.188;2023-07-29T11:48:18;8.95;;;3.65;;
64907;SDS011;69061;52.236;5.188;2023-07-29T11:50:46;6.85;;;3.95;;
64907;SDS011;69061;52.236;5.188;2023-07-29T11:53:13;7.00;;;4.78;;
64907;SDS011;69061;52.236;5.188;2023-07-29T11:55:40;4.60;;;3.50;;
64907;SDS011;69061;52.236;5.188;2023-07-29T11:58:07;6.85;;;3.80;;
64907;SDS011;69061;52.236;5.188;2023-07-29T12:00:34;4.57;;;3.38;;
64907;SDS011;69061;52.236;5.188;2023-07-29T12:03:01;3.47;;;3.15;;
64907;SDS011;69061;52.236;5.188;2023-07-29T12:05:28;5.05;;;2.90;;
64907;SDS011;69061;52.236;5.188;2023-07-29T12:07:56;3.63;;;2.80;;
64907;SDS011;69061;52.236;5.188;2023-07-29T12:10:25;3.80;;;3.10;;
64907;SDS011;69061;52.236;5.188;2023-07-29T12:12:52;3.92;;;3.42;;
64907;SDS011;69061;52.236;5.188;2023-07-29T12:15:22;3.85;;;3.45;;
64907;SDS011;69061;52.236;5.188;2023-07-29T12:17:52;3.90;;;3.25;;
64907;SDS011;69061;52.236;5.188;2023-07-29T12:20:20;6.00;;;3.72;;
64907;SDS011;69061;52.236;5.188;2023-07-29T12:22:53;4.32;;;3.28;;
64907;SDS011;69061;52.236;5.188;2023-07-29T12:25:22;4.20;;;3.40;;
64907;SDS011;69061;52.236;5.188;2023-07-29T12:27:49;6.20;;;3.60;;
64907;SDS011;69061;52.236;5.188;2023-07-29T12:30:16;4.07;;;3.58;;
64907;SDS011;69061;52.236;5.188;2023-07-29T12:32:46;4.22;;;3.78;;
64907;SDS011;69061;52.236;5.188;2023-07-29T12:35:14;5.18;;;3.63;;
64907;SDS011;69061;52.236;5.188;2023-07-29T12:37:41;5.22;;;4.05;;
64907;SDS011;69061;52.236;5.188;2023-07-29T12:40:09;6.45;;;3.90;;
64907;SDS011;69061;52.236;5.188;2023-07-29T12:42:49;5.47;;;3.92;;
64907;SDS011;69061;52.236;5.188;2023-07-29T12:45:16;5.25;;;3.70;;
64907;SDS011;69061;52.236;5.188;2023-07-29T12:47:43;5.07;;;4.55;;
64907;SDS011;69061;52.236;5.188;2023-07-29T12:50:10;5.72;;;5.03;;
64907;SDS011;69061;52.236;5.188;2023-07-29T12:52:37;6.20;;;4.72;;
64907;SDS011;69061;52.236;5.188;2023-07-29T12:55:04;6.50;;;5.00;;
64907;SDS011;69061;52.236;5.188;2023-07-29T12:57:33;6.18;;;4.45;;
64907;SDS011;69061;52.236;5.188;2023-07-29T13:00:02;9.02;;;4.93;;
64907;SDS011;69061;52.236;5.188;2023-07-29T13:02:29;4.65;;;4.25;;
64907;SDS011;69061;52.236;5.188;2023-07-29T13:04:55;6.57;;;4.90;;
64907;SDS011;69061;52.236;5.188;2023-07-29T13:07:22;7.03;;;4.75;;
64907;SDS011;69061;52.236;5.188;2023-07-29T13:09:49;6.57;;;4.65;;
64907;SDS011;69061;52.236;5.188;2023-07-29T13:12:15;7.00;;;5.00;;
64907;SDS011;69061;52.236;5.188;2023-07-29T13:14:42;6.80;;;5.00;;
64907;SDS011;69061;52.236;5.188;2023-07-29T13:17:10;5.35;;;4.75;;
64907;SDS011;69061;52.236;5.188;2023-07-29T13:19:37;6.38;;;4.80;;
64907;SDS011;69061;52.236;5.188;2023-07-29T13:22:03;7.10;;;5.38;;
64907;SDS011;69061;52.236;5.188;2023-07-29T13:24:30;7.93;;;5.35;;
64907;SDS011;69061;52.236;5.188;2023-07-29T13:26:57;7.03;;;4.82;;
64907;SDS011;69061;52.236;5.188;2023-07-29T13:29:24;8.20;;;5.18;;
64907;SDS011;69061;52.236;5.188;2023-07-29T13:31:50;7.55;;;5.22;;
64907;SDS011;69061;52.236;5.188;2023-07-29T13:34:19;6.18;;;5.00;;
64907;SDS011;69061;52.236;5.188;2023-07-29T13:36:45;6.03;;;4.75;;
64907;SDS011;69061;52.236;5.188;2023-07-29T13:39:12;6.63;;;4.60;;
64907;SDS011;69061;52.236;5.188;2023-07-29T13:41:39;6.88;;;4.93;;
64907;SDS011;69061;52.236;5.188;2023-07-29T13:44:05;6.38;;;4.85;;
64907;SDS011;69061;52.236;5.188;2023-07-29T13:46:32;5.93;;;5.35;;
64907;SDS011;69061;52.236;5.188;2023-07-29T13:48:59;7.38;;;5.60;;
64907;SDS011;69061;52.236;5.188;2023-07-29T13:51:27;8.63;;;5.50;;
64907;SDS011;69061;52.236;5.188;2023-07-29T13:53:54;9.63;;;5.60;;
64907;SDS011;69061;52.236;5.188;2023-07-29T13:56:21;6.68;;;5.25;;
64907;SDS011;69061;52.236;5.188;2023-07-29T13:58:48;7.65;;;5.22;;
64907;SDS011;69061;52.236;5.188;2023-07-29T14:01:14;6.47;;;4.72;;
64907;SDS011;69061;52.236;5.188;2023-07-29T14:03:41;6.10;;;5.00;;
64907;SDS011;69061;52.236;5.188;2023-07-29T14:06:08;6.13;;;4.93;;
64907;SDS011;69061;52.236;5.188;2023-07-29T14:08:40;9.05;;;5.75;;
64907;SDS011;69061;52.236;5.188;2023-07-29T14:11:07;10.93;;;5.65;;
64907;SDS011;69061;52.236;5.188;2023-07-29T14:13:34;5.55;;;3.92;;
64907;SDS011;69061;52.236;5.188;2023-07-29T14:16:01;8.40;;;4.70;;
64907;SDS011;69061;52.236;5.188;2023-07-29T14:18:28;6.65;;;4.10;;
64907;SDS011;69061;52.236;5.188;2023-07-29T14:20:55;5.55;;;4.65;;
64907;SDS011;69061;52.236;5.188;2023-07-29T14:23:22;7.50;;;4.47;;
64907;SDS011;69061;52.236;5.188;2023-07-29T14:25:50;5.30;;;4.00;;
64907;SDS011;69061;52.236;5.188;2023-07-29T14:28:16;8.55;;;3.80;;
64907;SDS011;69061;52.236;5.188;2023-07-29T14:30:43;7.82;;;4.45;;
64907;SDS011;69061;52.236;5.188;2023-07-29T14:33:10;5.78;;;3.78;;
64907;SDS011;69061;52.236;5.188;2023-07-29T14:35:37;5.18;;;3.70;;
64907;SDS011;69061;52.236;5.188;2023-07-29T14:38:03;6.50;;;3.95;;
64907;SDS011;69061;52.236;5.188;2023-07-29T14:40:30;4.30;;;3.40;;
64907;SDS011;69061;52.236;5.188;2023-07-29T14:42:58;4.85;;;3.28;;
64907;SDS011;69061;52.236;5.188;2023-07-29T14:45:26;5.55;;;3.60;;
64907;SDS011;69061;52.236;5.188;2023-07-29T14:47:53;5.88;;;3.83;;